sensor_id;sensor_type;location;lat;lon;timestamp;temperature;humidity
83019;DHT22;72834;40.104;18.336;2023-12-22T00:00:49;9.30;99.90
83019;DHT22;72834;40.104;18.336;2023-12-22T00:03:15;9.30;99.90
83019;DHT22;72834;40.104;18.336;2023-12-22T00:05:41;9.40;99.90
83019;DHT22;72834;40.104;18.336;2023-12-22T00:08:08;9.30;99.90
83019;DHT22;72834;40.104;18.336;2023-12-22T00:10:34;9.30;99.90
83019;DHT22;72834;40.104;18.336;2023-12-22T00:13:00;9.40;99.90
83019;DHT22;72834;40.104;18.336;2023-12-22T00:15:26;9.40;99.90
83019;DHT22;72834;40.104;18.336;2023-12-22T00:17:52;9.50;99.90
83019;DHT22;72834;40.104;18.336;2023-12-22T00:20:19;9.50;99.90
83019;DHT22;72834;40.104;18.336;2023-12-22T00:22:46;9.60;99.90
83019;DHT22;72834;40.104;18.336;2023-12-22T00:25:12;9.60;99.90
83019;DHT22;72834;40.104;18.336;2023-12-22T00:27:38;9.60;99.90
83019;DHT22;72834;40.104;18.336;2023-12-22T00:30:05;9.70;99.90
83019;DHT22;72834;40.104;18.336;2023-12-22T00:32:31;9.70;99.90
83019;DHT22;72834;40.104;18.336;2023-12-22T00:34:57;9.80;99.90
83019;DHT22;72834;40.104;18.336;2023-12-22T00:37:24;9.70;99.90
83019;DHT22;72834;40.104;18.336;2023-12-22T00:39:50;9.70;99.90
83019;DHT22;72834;40.104;18.336;2023-12-22T00:42:16;9.80;99.90
83019;DHT22;72834;40.104;18.336;2023-12-22T00:44:43;9.80;99.90
83019;DHT22;72834;40.104;18.336;2023-12-22T00:47:09;9.90;99.90
83019;DHT22;72834;40.104;18.336;2023-12-22T00:49:35;9.80;99.90
83019;DHT22;72834;40.104;18.336;2023-12-22T00:52:01;9.80;99.90
83019;DHT22;72834;40.104;18.336;2023-12-22T00:54:28;9.80;99.90
83019;DHT22;72834;40.104;18.336;2023-12-22T00:56:56;9.90;99.90
83019;DHT22;72834;40.104;18.336;2023-12-22T00:59:22;9.90;99.90
83019;DHT22;72834;40.104;18.336;2023-12-22T01:01:48;9.90;99.90
83019;DHT22;72834;40.104;18.336;2023-12-22T01:04:15;9.90;99.90
83019;DHT22;72834;40.104;18.336;2023-12-22T01:06:41;9.90;99.90
83019;DHT22;72834;40.104;18.336;2023-12-22T01:09:07;9.80;99.90
83019;DHT22;72834;40.104;18.336;2023-12-22T01:11:33;9.90;99.90
83019;DHT22;72834;40.104;18.336;2023-12-22T01:14:00;10.00;99.90
83019;DHT22;72834;40.104;18.336;2023-12-22T01:16:26;10.00;99.90
83019;DHT22;72834;40.104;18.336;2023-12-22T01:18:52;10.00;99.90
83019;DHT22;72834;40.104;18.336;2023-12-22T01:21:19;10.00;99.90
83019;DHT22;72834;40.104;18.336;2023-12-22T01:23:45;10.00;99.90
83019;DHT22;72834;40.104;18.336;2023-12-22T01:26:11;10.00;99.90
83019;DHT22;72834;40.104;18.336;2023-12-22T01:28:37;10.00;99.90
83019;DHT22;72834;40.104;18.336;2023-12-22T01:31:03;10.00;99.90
83019;DHT22;72834;40.104;18.336;2023-12-22T01:33:30;10.00;99.90
83019;DHT22;72834;40.104;18.336;2023-12-22T01:35:56;10.10;99.90
83019;DHT22;72834;40.104;18.336;2023-12-22T01:38:22;10.10;99.90
83019;DHT22;72834;40.104;18.336;2023-12-22T01:40:48;10.10;99.90
83019;DHT22;72834;40.104;18.336;2023-12-22T01:43:15;10.20;99.90
83019;DHT22;72834;40.104;18.336;2023-12-22T01:45:43;10.10;99.90
83019;DHT22;72834;40.104;18.336;2023-12-22T01:48:10;10.10;99.90
83019;DHT22;72834;40.104;18.336;2023-12-22T01:50:37;10.10;99.90
83019;DHT22;72834;40.104;18.336;2023-12-22T01:53:05;10.10;99.90
83019;DHT22;72834;40.104;18.336;2023-12-22T01:55:31;10.20;99.90
83019;DHT22;72834;40.104;18.336;2023-12-22T01:57:59;10.20;99.90
83019;DHT22;72834;40.104;18.336;2023-12-22T02:03:24;10.10;99.90
83019;DHT22;72834;40.104;18.336;2023-12-22T02:05:51;10.00;99.90
83019;DHT22;72834;40.104;18.336;2023-12-22T02:08:19;10.00;99.90
83019;DHT22;72834;40.104;18.336;2023-12-22T02:10:47;10.00;99.90
83019;DHT22;72834;40.104;18.336;2023-12-22T02:13:14;10.00;99.90
83019;DHT22;72834;40.104;18.336;2023-12-22T02:15:40;10.00;99.90
83019;DHT22;72834;40.104;18.336;2023-12-22T02:18:14;9.90;99.90
83019;DHT22;72834;40.104;18.336;2023-12-22T02:20:43;9.80;99.90
83019;DHT22;72834;40.104;18.336;2023-12-22T02:23:10;9.90;99.90
83019;DHT22;72834;40.104;18.336;2023-12-22T02:25:36;9.80;99.90
83019;DHT22;72834;40.104;18.336;2023-12-22T02:28:07;9.80;99.90
83019;DHT22;72834;40.104;18.336;2023-12-22T02:30:47;9.80;99.90
83019;DHT22;72834;40.104;18.336;2023-12-22T02:33:16;9.80;99.90
83019;DHT22;72834;40.104;18.336;2023-12-22T02:35:44;9.80;99.90
83019;DHT22;72834;40.104;18.336;2023-12-22T02:38:12;9.80;99.90
83019;DHT22;72834;40.104;18.336;2023-12-22T02:40:39;9.80;99.90
83019;DHT22;72834;40.104;18.336;2023-12-22T02:43:06;9.70;99.90
83019;DHT22;72834;40.104;18.336;2023-12-22T02:45:32;9.70;99.90
83019;DHT22;72834;40.104;18.336;2023-12-22T02:47:59;9.60;99.90
83019;DHT22;72834;40.104;18.336;2023-12-22T02:50:25;9.60;99.90
83019;DHT22;72834;40.104;18.336;2023-12-22T02:52:51;9.70;99.90
83019;DHT22;72834;40.104;18.336;2023-12-22T02:55:17;9.70;99.90
83019;DHT22;72834;40.104;18.336;2023-12-22T02:57:44;9.70;99.90
83019;DHT22;72834;40.104;18.336;2023-12-22T03:00:10;9.60;99.90
83019;DHT22;72834;40.104;18.336;2023-12-22T03:02:37;9.60;99.90
83019;DHT22;72834;40.104;18.336;2023-12-22T03:05:04;9.70;99.90
83019;DHT22;72834;40.104;18.336;2023-12-22T03:07:30;9.70;99.90
83019;DHT22;72834;40.104;18.336;2023-12-22T03:09:57;9.80;99.90
83019;DHT22;72834;40.104;18.336;2023-12-22T03:12:24;9.80;99.90
83019;DHT22;72834;40.104;18.336;2023-12-22T03:14:50;9.80;99.90
83019;DHT22;72834;40.104;18.336;2023-12-22T03:17:16;9.80;99.90
83019;DHT22;72834;40.104;18.336;2023-12-22T03:19:44;9.90;99.90
83019;DHT22;72834;40.104;18.336;2023-12-22T03:22:10;9.90;99.90
83019;DHT22;72834;40.104;18.336;2023-12-22T03:24:36;9.90;99.90
83019;DHT22;72834;40.104;18.336;2023-12-22T03:27:03;9.90;99.90
83019;DHT22;72834;40.104;18.336;2023-12-22T03:29:29;9.90;99.90
83019;DHT22;72834;40.104;18.336;2023-12-22T03:31:55;10.00;99.90
83019;DHT22;72834;40.104;18.336;2023-12-22T03:34:21;10.00;99.90
83019;DHT22;72834;40.104;18.336;2023-12-22T03:36:48;10.00;99.90
83019;DHT22;72834;40.104;18.336;2023-12-22T03:39:15;10.00;99.90
83019;DHT22;72834;40.104;18.336;2023-12-22T03:41:41;10.10;99.90
83019;DHT22;72834;40.104;18.336;2023-12-22T03:44:08;10.10;99.90
83019;DHT22;72834;40.104;18.336;2023-12-22T03:46:34;10.10;99.90
83019;DHT22;72834;40.104;18.336;2023-12-22T03:49:00;10.10;99.90
83019;DHT22;72834;40.104;18.336;2023-12-22T03:51:26;10.20;99.90
83019;DHT22;72834;40.104;18.336;2023-12-22T03:53:53;10.20;99.90
83019;DHT22;72834;40.104;18.336;2023-12-22T03:56:19;10.20;99.90
83019;DHT22;72834;40.104;18.336;2023-12-22T03:58:45;10.10;99.90
83019;DHT22;72834;40.104;18.336;2023-12-22T04:01:14;10.20;99.90
83019;DHT22;72834;40.104;18.336;2023-12-22T04:03:40;10.20;99.90
83019;DHT22;72834;40.104;18.336;2023-12-22T04:06:07;10.30;99.90
83019;DHT22;72834;40.104;18.336;2023-12-22T04:08:33;10.40;99.90
83019;DHT22;72834;40.104;18.336;2023-12-22T04:10:59;10.50;99.90
83019;DHT22;72834;40.104;18.336;2023-12-22T04:13:25;10.60;99.90
83019;DHT22;72834;40.104;18.336;2023-12-22T04:15:52;10.70;99.90
83019;DHT22;72834;40.104;18.336;2023-12-22T04:18:18;10.80;99.90
83019;DHT22;72834;40.104;18.336;2023-12-22T04:20:44;10.80;99.90
83019;DHT22;72834;40.104;18.336;2023-12-22T04:23:11;10.80;99.90
83019;DHT22;72834;40.104;18.336;2023-12-22T04:25:37;10.90;99.90
83019;DHT22;72834;40.104;18.336;2023-12-22T04:28:03;10.90;99.90
83019;DHT22;72834;40.104;18.336;2023-12-22T04:30:29;10.90;99.90
83019;DHT22;72834;40.104;18.336;2023-12-22T04:32:56;11.00;99.90
83019;DHT22;72834;40.104;18.336;2023-12-22T04:35:22;11.00;99.90
83019;DHT22;72834;40.104;18.336;2023-12-22T04:37:48;11.00;99.90
83019;DHT22;72834;40.104;18.336;2023-12-22T04:40:14;11.00;99.90
83019;DHT22;72834;40.104;18.336;2023-12-22T04:42:41;11.00;99.90
83019;DHT22;72834;40.104;18.336;2023-12-22T04:45:08;11.00;99.90
83019;DHT22;72834;40.104;18.336;2023-12-22T04:47:34;11.00;99.90
83019;DHT22;72834;40.104;18.336;2023-12-22T04:50:00;11.00;99.90
83019;DHT22;72834;40.104;18.336;2023-12-22T04:52:26;11.00;99.90
83019;DHT22;72834;40.104;18.336;2023-12-22T04:54:52;11.00;99.90
83019;DHT22;72834;40.104;18.336;2023-12-22T04:57:19;11.00;99.90
83019;DHT22;72834;40.104;18.336;2023-12-22T04:59:45;11.00;99.90
83019;DHT22;72834;40.104;18.336;2023-12-22T05:02:11;11.00;99.90
83019;DHT22;72834;40.104;18.336;2023-12-22T05:04:37;11.00;99.90
83019;DHT22;72834;40.104;18.336;2023-12-22T05:07:03;11.00;99.90
83019;DHT22;72834;40.104;18.336;2023-12-22T05:09:34;11.00;99.90
83019;DHT22;72834;40.104;18.336;2023-12-22T05:12:00;11.00;99.90
83019;DHT22;72834;40.104;18.336;2023-12-22T05:14:26;11.10;99.90
83019;DHT22;72834;40.104;18.336;2023-12-22T05:16:52;11.00;99.90
83019;DHT22;72834;40.104;18.336;2023-12-22T05:19:21;11.00;99.90
83019;DHT22;72834;40.104;18.336;2023-12-22T05:21:48;11.00;99.90
83019;DHT22;72834;40.104;18.336;2023-12-22T05:24:18;11.10;99.90
83019;DHT22;72834;40.104;18.336;2023-12-22T05:26:45;11.10;99.90
83019;DHT22;72834;40.104;18.336;2023-12-22T05:29:11;11.00;99.90
83019;DHT22;72834;40.104;18.336;2023-12-22T05:31:38;11.00;99.90
83019;DHT22;72834;40.104;18.336;2023-12-22T05:34:06;11.00;99.90
83019;DHT22;72834;40.104;18.336;2023-12-22T05:36:32;11.10;99.90
83019;DHT22;72834;40.104;18.336;2023-12-22T05:38:58;11.00;99.90
83019;DHT22;72834;40.104;18.336;2023-12-22T05:41:25;11.00;99.90
83019;DHT22;72834;40.104;18.336;2023-12-22T05:43:51;10.90;99.90
83019;DHT22;72834;40.104;18.336;2023-12-22T05:46:17;10.80;99.90
83019;DHT22;72834;40.104;18.336;2023-12-22T05:48:44;10.70;99.90
83019;DHT22;72834;40.104;18.336;2023-12-22T05:51:10;10.70;99.90
83019;DHT22;72834;40.104;18.336;2023-12-22T05:53:40;10.70;99.90
83019;DHT22;72834;40.104;18.336;2023-12-22T05:56:20;10.70;99.90
83019;DHT22;72834;40.104;18.336;2023-12-22T05:58:48;10.70;99.90
83019;DHT22;72834;40.104;18.336;2023-12-22T06:01:18;10.70;99.90
83019;DHT22;72834;40.104;18.336;2023-12-22T06:03:46;10.60;99.90
83019;DHT22;72834;40.104;18.336;2023-12-22T06:06:12;10.60;99.90
83019;DHT22;72834;40.104;18.336;2023-12-22T06:08:39;10.60;99.90
83019;DHT22;72834;40.104;18.336;2023-12-22T06:11:05;10.60;99.90
83019;DHT22;72834;40.104;18.336;2023-12-22T06:13:32;10.50;99.90
83019;DHT22;72834;40.104;18.336;2023-12-22T06:15:58;10.50;99.90
83019;DHT22;72834;40.104;18.336;2023-12-22T06:18:24;10.60;99.90
83019;DHT22;72834;40.104;18.336;2023-12-22T06:20:50;10.60;99.90
83019;DHT22;72834;40.104;18.336;2023-12-22T06:23:17;10.60;99.90
83019;DHT22;72834;40.104;18.336;2023-12-22T06:25:43;10.60;99.90
83019;DHT22;72834;40.104;18.336;2023-12-22T06:28:09;10.60;99.90
83019;DHT22;72834;40.104;18.336;2023-12-22T06:30:36;10.60;99.90
83019;DHT22;72834;40.104;18.336;2023-12-22T06:33:02;10.70;99.90
83019;DHT22;72834;40.104;18.336;2023-12-22T06:35:28;10.70;99.90
83019;DHT22;72834;40.104;18.336;2023-12-22T06:37:55;10.80;99.90
83019;DHT22;72834;40.104;18.336;2023-12-22T06:40:22;10.90;99.90
83019;DHT22;72834;40.104;18.336;2023-12-22T06:42:48;10.90;99.90
83019;DHT22;72834;40.104;18.336;2023-12-22T06:45:14;11.00;99.90
83019;DHT22;72834;40.104;18.336;2023-12-22T06:47:40;11.00;99.90
83019;DHT22;72834;40.104;18.336;2023-12-22T06:50:07;11.10;99.90
83019;DHT22;72834;40.104;18.336;2023-12-22T06:52:33;11.20;99.90
83019;DHT22;72834;40.104;18.336;2023-12-22T06:54:59;11.30;99.90
83019;DHT22;72834;40.104;18.336;2023-12-22T06:57:25;11.30;99.90
83019;DHT22;72834;40.104;18.336;2023-12-22T06:59:52;11.40;99.90
83019;DHT22;72834;40.104;18.336;2023-12-22T07:02:18;11.50;99.90
83019;DHT22;72834;40.104;18.336;2023-12-22T07:05:29;11.60;99.90
83019;DHT22;72834;40.104;18.336;2023-12-22T07:07:49;11.60;99.90
83019;DHT22;72834;40.104;18.336;2023-12-22T07:10:16;11.70;99.90
83019;DHT22;72834;40.104;18.336;2023-12-22T07:12:43;11.80;99.90
83019;DHT22;72834;40.104;18.336;2023-12-22T07:15:09;11.80;99.90
83019;DHT22;72834;40.104;18.336;2023-12-22T07:17:36;11.80;99.90
83019;DHT22;72834;40.104;18.336;2023-12-22T07:20:03;11.80;99.90
83019;DHT22;72834;40.104;18.336;2023-12-22T07:22:30;11.80;99.90
83019;DHT22;72834;40.104;18.336;2023-12-22T07:24:57;11.90;99.90
83019;DHT22;72834;40.104;18.336;2023-12-22T07:27:23;11.90;99.90
83019;DHT22;72834;40.104;18.336;2023-12-22T07:29:50;11.90;99.90
83019;DHT22;72834;40.104;18.336;2023-12-22T07:32:16;11.90;99.90
83019;DHT22;72834;40.104;18.336;2023-12-22T07:34:42;11.90;99.90
83019;DHT22;72834;40.104;18.336;2023-12-22T07:37:09;11.90;99.90
83019;DHT22;72834;40.104;18.336;2023-12-22T07:39:35;11.80;99.90
83019;DHT22;72834;40.104;18.336;2023-12-22T07:42:01;11.80;99.90
83019;DHT22;72834;40.104;18.336;2023-12-22T07:44:27;11.80;99.90
83019;DHT22;72834;40.104;18.336;2023-12-22T07:46:58;11.80;99.90
83019;DHT22;72834;40.104;18.336;2023-12-22T07:49:27;11.80;99.90
83019;DHT22;72834;40.104;18.336;2023-12-22T07:51:54;11.90;99.90
83019;DHT22;72834;40.104;18.336;2023-12-22T07:54:20;11.90;99.90
83019;DHT22;72834;40.104;18.336;2023-12-22T07:56:46;12.00;99.90
83019;DHT22;72834;40.104;18.336;2023-12-22T07:59:13;11.90;99.90
83019;DHT22;72834;40.104;18.336;2023-12-22T08:01:40;11.90;99.90
83019;DHT22;72834;40.104;18.336;2023-12-22T08:04:06;11.90;99.90
83019;DHT22;72834;40.104;18.336;2023-12-22T08:06:32;11.90;99.90
83019;DHT22;72834;40.104;18.336;2023-12-22T08:08:59;12.00;99.90
83019;DHT22;72834;40.104;18.336;2023-12-22T08:11:25;12.00;99.90
83019;DHT22;72834;40.104;18.336;2023-12-22T08:13:52;12.00;99.90
83019;DHT22;72834;40.104;18.336;2023-12-22T08:16:19;12.00;99.90
83019;DHT22;72834;40.104;18.336;2023-12-22T08:18:45;12.00;99.90
83019;DHT22;72834;40.104;18.336;2023-12-22T08:21:11;12.10;99.90
83019;DHT22;72834;40.104;18.336;2023-12-22T08:23:39;12.20;99.90
83019;DHT22;72834;40.104;18.336;2023-12-22T08:26:05;12.30;99.90
83019;DHT22;72834;40.104;18.336;2023-12-22T08:28:31;12.40;99.90
83019;DHT22;72834;40.104;18.336;2023-12-22T08:30:57;12.50;99.90
83019;DHT22;72834;40.104;18.336;2023-12-22T08:33:24;12.60;99.90
83019;DHT22;72834;40.104;18.336;2023-12-22T08:35:50;12.60;99.90
83019;DHT22;72834;40.104;18.336;2023-12-22T08:38:16;12.70;99.90
83019;DHT22;72834;40.104;18.336;2023-12-22T08:40:43;12.80;99.90
83019;DHT22;72834;40.104;18.336;2023-12-22T08:43:09;12.90;99.90
83019;DHT22;72834;40.104;18.336;2023-12-22T08:45:35;12.90;99.90
83019;DHT22;72834;40.104;18.336;2023-12-22T08:48:02;13.00;99.90
83019;DHT22;72834;40.104;18.336;2023-12-22T08:50:28;13.10;99.90
83019;DHT22;72834;40.104;18.336;2023-12-22T08:52:54;13.20;99.90
83019;DHT22;72834;40.104;18.336;2023-12-22T08:55:20;13.20;99.90
83019;DHT22;72834;40.104;18.336;2023-12-22T08:57:47;13.30;99.90
83019;DHT22;72834;40.104;18.336;2023-12-22T09:00:13;13.40;99.90
83019;DHT22;72834;40.104;18.336;2023-12-22T09:02:40;13.40;99.90
83019;DHT22;72834;40.104;18.336;2023-12-22T09:05:06;13.50;99.90
83019;DHT22;72834;40.104;18.336;2023-12-22T09:07:33;13.50;99.90
83019;DHT22;72834;40.104;18.336;2023-12-22T09:09:59;13.50;99.90
83019;DHT22;72834;40.104;18.336;2023-12-22T09:12:25;13.60;99.90
83019;DHT22;72834;40.104;18.336;2023-12-22T09:14:52;13.70;99.90
83019;DHT22;72834;40.104;18.336;2023-12-22T09:17:19;13.70;99.90
83019;DHT22;72834;40.104;18.336;2023-12-22T09:19:45;13.80;99.90
83019;DHT22;72834;40.104;18.336;2023-12-22T09:22:11;13.80;99.90
83019;DHT22;72834;40.104;18.336;2023-12-22T09:24:38;13.80;99.90
83019;DHT22;72834;40.104;18.336;2023-12-22T09:27:04;13.90;99.90
83019;DHT22;72834;40.104;18.336;2023-12-22T09:29:30;14.00;99.90
83019;DHT22;72834;40.104;18.336;2023-12-22T09:32:01;14.00;99.90
83019;DHT22;72834;40.104;18.336;2023-12-22T09:34:27;14.00;99.90
83019;DHT22;72834;40.104;18.336;2023-12-22T09:36:54;14.00;99.90
83019;DHT22;72834;40.104;18.336;2023-12-22T09:39:21;14.10;99.90
83019;DHT22;72834;40.104;18.336;2023-12-22T09:41:50;14.10;99.90
83019;DHT22;72834;40.104;18.336;2023-12-22T09:44:19;14.20;99.90
83019;DHT22;72834;40.104;18.336;2023-12-22T09:46:50;14.20;99.90
83019;DHT22;72834;40.104;18.336;2023-12-22T09:49:20;14.20;99.90
83019;DHT22;72834;40.104;18.336;2023-12-22T09:51:49;14.30;99.90
83019;DHT22;72834;40.104;18.336;2023-12-22T09:54:16;14.30;99.90
83019;DHT22;72834;40.104;18.336;2023-12-22T09:56:44;14.30;99.90
83019;DHT22;72834;40.104;18.336;2023-12-22T09:59:12;14.40;99.90
83019;DHT22;72834;40.104;18.336;2023-12-22T10:01:45;14.40;99.90
83019;DHT22;72834;40.104;18.336;2023-12-22T10:04:13;14.50;99.90
83019;DHT22;72834;40.104;18.336;2023-12-22T10:06:41;14.50;99.90
83019;DHT22;72834;40.104;18.336;2023-12-22T10:09:09;14.60;99.90
83019;DHT22;72834;40.104;18.336;2023-12-22T10:11:37;14.60;99.90
83019;DHT22;72834;40.104;18.336;2023-12-22T10:14:04;14.70;99.90
83019;DHT22;72834;40.104;18.336;2023-12-22T10:16:31;14.70;99.90
83019;DHT22;72834;40.104;18.336;2023-12-22T10:18:59;14.80;99.90
83019;DHT22;72834;40.104;18.336;2023-12-22T10:21:26;14.90;99.90
83019;DHT22;72834;40.104;18.336;2023-12-22T10:23:52;14.90;99.90
83019;DHT22;72834;40.104;18.336;2023-12-22T10:26:18;14.90;99.90
83019;DHT22;72834;40.104;18.336;2023-12-22T10:28:47;14.90;99.90
83019;DHT22;72834;40.104;18.336;2023-12-22T10:31:14;15.00;99.90
83019;DHT22;72834;40.104;18.336;2023-12-22T10:33:43;15.00;99.90
83019;DHT22;72834;40.104;18.336;2023-12-22T10:36:09;15.10;99.90
83019;DHT22;72834;40.104;18.336;2023-12-22T10:38:36;15.10;99.90
83019;DHT22;72834;40.104;18.336;2023-12-22T10:41:03;15.10;99.90
83019;DHT22;72834;40.104;18.336;2023-12-22T10:43:29;15.20;99.90
83019;DHT22;72834;40.104;18.336;2023-12-22T10:45:56;15.20;99.90
83019;DHT22;72834;40.104;18.336;2023-12-22T10:48:25;15.20;99.90
83019;DHT22;72834;40.104;18.336;2023-12-22T10:50:51;15.30;99.90
83019;DHT22;72834;40.104;18.336;2023-12-22T10:53:17;15.30;99.90
83019;DHT22;72834;40.104;18.336;2023-12-22T10:55:46;15.40;99.90
83019;DHT22;72834;40.104;18.336;2023-12-22T10:58:16;15.30;99.90
83019;DHT22;72834;40.104;18.336;2023-12-22T11:00:45;15.40;99.90
83019;DHT22;72834;40.104;18.336;2023-12-22T11:03:17;15.40;99.90
83019;DHT22;72834;40.104;18.336;2023-12-22T11:05:48;15.40;99.90
83019;DHT22;72834;40.104;18.336;2023-12-22T11:08:15;15.40;99.90
83019;DHT22;72834;40.104;18.336;2023-12-22T11:10:44;15.40;99.90
83019;DHT22;72834;40.104;18.336;2023-12-22T11:13:13;15.40;99.90
83019;DHT22;72834;40.104;18.336;2023-12-22T11:15:40;15.40;99.90
83019;DHT22;72834;40.104;18.336;2023-12-22T11:18:08;15.40;99.90
83019;DHT22;72834;40.104;18.336;2023-12-22T11:20:36;15.50;99.90
83019;DHT22;72834;40.104;18.336;2023-12-22T11:23:04;15.50;99.90
83019;DHT22;72834;40.104;18.336;2023-12-22T11:25:31;15.50;99.90
83019;DHT22;72834;40.104;18.336;2023-12-22T11:28:00;15.50;99.90
83019;DHT22;72834;40.104;18.336;2023-12-22T11:30:29;15.50;99.90
83019;DHT22;72834;40.104;18.336;2023-12-22T11:32:57;15.60;99.90
83019;DHT22;72834;40.104;18.336;2023-12-22T11:35:24;15.60;99.90
83019;DHT22;72834;40.104;18.336;2023-12-22T11:37:51;15.60;99.90
83019;DHT22;72834;40.104;18.336;2023-12-22T11:40:19;15.60;99.90
83019;DHT22;72834;40.104;18.336;2023-12-22T11:42:48;15.60;99.90
83019;DHT22;72834;40.104;18.336;2023-12-22T11:45:15;15.60;99.90
83019;DHT22;72834;40.104;18.336;2023-12-22T11:47:47;15.60;99.90
83019;DHT22;72834;40.104;18.336;2023-12-22T11:50:30;15.70;99.90
83019;DHT22;72834;40.104;18.336;2023-12-22T11:52:57;15.70;99.90
83019;DHT22;72834;40.104;18.336;2023-12-22T11:56:03;15.70;99.90
83019;DHT22;72834;40.104;18.336;2023-12-22T12:01:02;15.70;99.90
83019;DHT22;72834;40.104;18.336;2023-12-22T12:03:32;15.70;99.90
83019;DHT22;72834;40.104;18.336;2023-12-22T12:06:32;15.70;99.90
83019;DHT22;72834;40.104;18.336;2023-12-22T12:09:01;15.70;99.90
83019;DHT22;72834;40.104;18.336;2023-12-22T12:14:32;15.80;99.90
83019;DHT22;72834;40.104;18.336;2023-12-22T12:17:08;15.80;99.90
83019;DHT22;72834;40.104;18.336;2023-12-22T12:19:39;15.80;99.90
83019;DHT22;72834;40.104;18.336;2023-12-22T12:22:08;15.80;99.90
83019;DHT22;72834;40.104;18.336;2023-12-22T12:24:36;15.80;99.90
83019;DHT22;72834;40.104;18.336;2023-12-22T12:27:03;15.80;99.90
83019;DHT22;72834;40.104;18.336;2023-12-22T12:29:32;15.80;99.90
83019;DHT22;72834;40.104;18.336;2023-12-22T12:32:05;15.80;99.90
83019;DHT22;72834;40.104;18.336;2023-12-22T12:34:32;15.80;99.90
83019;DHT22;72834;40.104;18.336;2023-12-22T12:36:59;15.80;99.90
83019;DHT22;72834;40.104;18.336;2023-12-22T12:39:30;15.80;99.90
83019;DHT22;72834;40.104;18.336;2023-12-22T12:41:59;15.80;99.90
83019;DHT22;72834;40.104;18.336;2023-12-22T12:44:29;15.80;99.90
83019;DHT22;72834;40.104;18.336;2023-12-22T12:46:56;15.80;99.90
83019;DHT22;72834;40.104;18.336;2023-12-22T12:49:23;15.80;99.90
83019;DHT22;72834;40.104;18.336;2023-12-22T12:51:53;15.80;99.90
83019;DHT22;72834;40.104;18.336;2023-12-22T12:54:20;15.80;99.90
83019;DHT22;72834;40.104;18.336;2023-12-22T12:56:47;15.80;99.90
83019;DHT22;72834;40.104;18.336;2023-12-22T12:59:16;15.80;99.90
83019;DHT22;72834;40.104;18.336;2023-12-22T13:01:45;15.80;99.90
83019;DHT22;72834;40.104;18.336;2023-12-22T13:04:13;15.80;99.90
83019;DHT22;72834;40.104;18.336;2023-12-22T13:06:46;15.80;99.90
83019;DHT22;72834;40.104;18.336;2023-12-22T13:09:13;15.80;99.90
83019;DHT22;72834;40.104;18.336;2023-12-22T13:11:40;15.80;99.90
83019;DHT22;72834;40.104;18.336;2023-12-22T13:14:12;15.80;99.90
83019;DHT22;72834;40.104;18.336;2023-12-22T13:16:39;15.80;99.90
83019;DHT22;72834;40.104;18.336;2023-12-22T13:19:06;15.80;99.90
83019;DHT22;72834;40.104;18.336;2023-12-22T13:21:33;15.80;99.90
83019;DHT22;72834;40.104;18.336;2023-12-22T13:24:16;15.80;99.90
83019;DHT22;72834;40.104;18.336;2023-12-22T13:26:43;15.80;99.90
83019;DHT22;72834;40.104;18.336;2023-12-22T13:29:11;15.80;99.90
83019;DHT22;72834;40.104;18.336;2023-12-22T13:31:38;15.80;99.90
83019;DHT22;72834;40.104;18.336;2023-12-22T13:34:12;15.80;99.90
83019;DHT22;72834;40.104;18.336;2023-12-22T13:36:40;15.80;99.90
83019;DHT22;72834;40.104;18.336;2023-12-22T13:39:08;15.80;99.90
83019;DHT22;72834;40.104;18.336;2023-12-22T13:41:39;15.80;99.90
83019;DHT22;72834;40.104;18.336;2023-12-22T13:44:12;15.80;99.90
83019;DHT22;72834;40.104;18.336;2023-12-22T13:46:38;15.80;99.90
83019;DHT22;72834;40.104;18.336;2023-12-22T13:49:08;15.80;99.90
83019;DHT22;72834;40.104;18.336;2023-12-22T13:51:42;15.80;99.90
83019;DHT22;72834;40.104;18.336;2023-12-22T13:54:09;15.80;99.90
83019;DHT22;72834;40.104;18.336;2023-12-22T13:56:36;15.80;99.90
83019;DHT22;72834;40.104;18.336;2023-12-22T13:59:06;15.70;99.90
83019;DHT22;72834;40.104;18.336;2023-12-22T14:01:32;15.70;99.90
83019;DHT22;72834;40.104;18.336;2023-12-22T14:03:59;15.70;99.90
83019;DHT22;72834;40.104;18.336;2023-12-22T14:06:26;15.70;99.90
83019;DHT22;72834;40.104;18.336;2023-12-22T14:08:53;15.70;99.90
83019;DHT22;72834;40.104;18.336;2023-12-22T14:11:20;15.70;99.90
83019;DHT22;72834;40.104;18.336;2023-12-22T14:13:47;15.60;99.90
83019;DHT22;72834;40.104;18.336;2023-12-22T14:16:13;15.60;99.90
83019;DHT22;72834;40.104;18.336;2023-12-22T14:18:42;15.60;99.90
83019;DHT22;72834;40.104;18.336;2023-12-22T14:21:08;15.60;99.90
83019;DHT22;72834;40.104;18.336;2023-12-22T14:23:34;15.60;99.90
83019;DHT22;72834;40.104;18.336;2023-12-22T14:26:01;15.50;99.90
83019;DHT22;72834;40.104;18.336;2023-12-22T14:28:27;15.50;99.90
83019;DHT22;72834;40.104;18.336;2023-12-22T14:30:53;15.50;99.90
83019;DHT22;72834;40.104;18.336;2023-12-22T14:33:20;15.50;99.90
83019;DHT22;72834;40.104;18.336;2023-12-22T14:35:47;15.40;99.90
83019;DHT22;72834;40.104;18.336;2023-12-22T14:38:13;15.40;99.90
83019;DHT22;72834;40.104;18.336;2023-12-22T14:40:40;15.40;99.90
83019;DHT22;72834;40.104;18.336;2023-12-22T14:43:06;15.40;99.90
83019;DHT22;72834;40.104;18.336;2023-12-22T14:45:32;15.30;99.90
83019;DHT22;72834;40.104;18.336;2023-12-22T14:47:59;15.30;99.90
83019;DHT22;72834;40.104;18.336;2023-12-22T14:50:25;15.30;99.90
83019;DHT22;72834;40.104;18.336;2023-12-22T14:52:51;15.20;99.90
83019;DHT22;72834;40.104;18.336;2023-12-22T14:55:17;15.20;99.90
83019;DHT22;72834;40.104;18.336;2023-12-22T14:57:44;15.20;99.90
83019;DHT22;72834;40.104;18.336;2023-12-22T15:00:10;15.20;99.90
83019;DHT22;72834;40.104;18.336;2023-12-22T15:02:37;15.10;99.90
83019;DHT22;72834;40.104;18.336;2023-12-22T15:05:03;14.90;99.90
83019;DHT22;72834;40.104;18.336;2023-12-22T15:07:30;14.90;99.90
83019;DHT22;72834;40.104;18.336;2023-12-22T15:09:56;14.80;99.90
83019;DHT22;72834;40.104;18.336;2023-12-22T15:12:24;14.80;99.90
83019;DHT22;72834;40.104;18.336;2023-12-22T15:14:50;14.70;99.90
83019;DHT22;72834;40.104;18.336;2023-12-22T15:17:17;14.70;99.90
83019;DHT22;72834;40.104;18.336;2023-12-22T15:19:44;14.70;99.90
83019;DHT22;72834;40.104;18.336;2023-12-22T15:22:10;14.60;99.90
83019;DHT22;72834;40.104;18.336;2023-12-22T15:24:38;14.60;99.90
83019;DHT22;72834;40.104;18.336;2023-12-22T15:27:10;14.60;99.90